Time;durP1;ratioP1;P1;durP2;ratioP2;P2;SDS_P1;SDS_P2;PMS_P1;PMS_P2;Temp;Humidity;BMP_temperature;BMP_pressure;BME280_temperature;BME280_humidity;BME280_pressure;Samples;Min_cycle;Max_cycle;Signal;HPM_P1;HPM_P2
2023/11/13 00:02:04;;;;;;;6.40;3.65;;;205.30;2252.80;;;;;;5023171;28;20026;-79
2023/11/13 00:04:29;;;;;;;6.78;3.85;;;205.30;2252.80;;;;;;5032907;28;20104;-79
2023/11/13 00:06:55;;;;;;;6.65;3.42;;;205.30;2252.80;;;;;;5023329;28;20045;-79
2023/11/13 00:09:21;;;;;;;6.65;4.20;;;205.30;2252.80;;;;;;5030726;28;20042;-78
2023/11/13 00:11:47;;;;;;;6.05;3.63;;;205.30;2252.80;;;;;;5024127;28;20036;-80
2023/11/13 00:14:13;;;;;;;5.78;3.03;;;205.30;2252.80;;;;;;5026410;28;20503;-79
2023/11/13 00:16:39;;;;;;;6.15;3.25;;;205.40;2252.80;;;;;;5016233;28;20046;-80
2023/11/13 00:19:05;;;;;;;5.10;3.08;;;205.40;2252.80;;;;;;5008039;28;20061;-79
2023/11/13 00:21:31;;;;;;;;;;;205.30;2252.80;;;;;;5006134;28;20113;-79
2023/11/13 00:23:57;;;;;;;4.50;2.40;;;205.30;2252.80;;;;;;5017588;28;19913;-79
2023/11/13 00:26:24;;;;;;;4.40;2.47;;;205.20;2252.80;;;;;;5012423;28;20037;-79
2023/11/13 00:28:50;;;;;;;4.97;2.60;;;205.20;2252.80;;;;;;5012210;28;20038;-79
2023/11/13 00:31:17;;;;;;;4.57;2.95;;;205.20;2252.80;;;;;;5007036;28;20053;-79
2023/11/13 00:33:43;;;;;;;4.85;2.80;;;205.20;2252.80;;;;;;5005957;28;20034;-79
2023/11/13 00:36:08;;;;;;;6.25;2.97;;;205.20;2252.80;;;;;;5009069;28;20108;-80
2023/11/13 00:38:34;;;;;;;;;;;205.20;2252.80;;;;;;5003605;28;20025;-80
2023/11/13 00:41:00;;;;;;;5.70;2.50;;;205.20;2252.80;;;;;;5021129;28;19914;-80
2023/11/13 00:43:25;;;;;;;;;;;205.10;2252.80;;;;;;5010742;28;20161;-79
2023/11/13 00:45:51;;;;;;;8.85;2.80;;;205.10;2252.80;;;;;;5020319;28;19910;-77
2023/11/13 00:48:19;;;;;;;;;;;205.10;2252.80;;;;;;4993971;28;20068;-78
2023/11/13 00:50:45;;;;;;;4.07;2.20;;;205.10;2252.80;;;;;;4993385;28;19984;-78
2023/11/13 00:53:11;;;;;;;;;;;205.10;2252.80;;;;;;4998859;28;20465;-77
2023/11/13 00:55:37;;;;;;;4.90;2.00;;;205.00;2252.80;;;;;;4993585;28;20360;-77
2023/11/13 00:58:04;;;;;;;5.30;2.30;;;205.00;2252.80;;;;;;4994531;28;20026;-78
2023/11/13 01:00:31;;;;;;;5.03;2.35;;;205.00;2252.80;;;;;;5002210;28;20029;-78
2023/11/13 01:02:58;;;;;;;3.25;1.88;;;205.00;2252.80;;;;;;4996208;28;20030;-78
2023/11/13 01:05:23;;;;;;;5.07;1.95;;;205.00;2252.80;;;;;;4996419;28;20391;-78
2023/11/13 01:07:49;;;;;;;4.47;2.03;;;205.00;2252.80;;;;;;5007331;28;20021;-78
2023/11/13 01:10:15;;;;;;;;;;;205.00;2252.80;;;;;;5001149;28;20040;-78
2023/11/13 01:12:41;;;;;;;3.58;1.90;;;205.00;2252.80;;;;;;4996204;28;19905;-78
2023/11/13 01:15:08;;;;;;;;;;;205.00;2252.80;;;;;;5001095;28;20049;-77
2023/11/13 01:17:35;;;;;;;7.20;2.38;;;204.90;2252.80;;;;;;4999042;28;19921;-78
2023/11/13 01:20:03;;;;;;;4.65;2.92;;;204.90;2252.80;;;;;;4996002;28;20116;-77
2023/11/13 01:22:30;;;;;;;4.18;1.80;;;204.80;2252.80;;;;;;4995856;28;20025;-78
2023/11/13 01:24:56;;;;;;;3.92;1.77;;;204.80;2252.80;;;;;;4995816;28;20029;-78
2023/11/13 01:27:22;;;;;;;3.50;1.83;;;204.80;2252.80;;;;;;5000021;28;20511;-78
2023/11/13 01:29:48;;;;;;;4.78;1.63;;;204.80;2252.80;;;;;;4995693;28;20555;-78
2023/11/13 01:32:14;;;;;;;;;;;204.80;2252.80;;;;;;5013784;28;20041;-77
2023/11/13 01:34:39;;;;;;;4.32;2.60;;;204.80;2252.80;;;;;;5013281;28;19912;-77
2023/11/13 01:37:05;;;;;;;4.45;2.17;;;204.80;2252.80;;;;;;5013386;28;20504;-78
2023/11/13 01:39:31;;;;;;;4.57;2.10;;;204.80;2252.80;;;;;;5006294;28;20026;-77
2023/11/13 01:41:57;;;;;;;3.30;1.85;;;180.10;2252.80;;;;;;4995663;28;20099;-78
2023/11/13 01:44:24;;;;;;;5.45;2.03;;;180.10;2252.80;;;;;;4995629;28;20476;-77
2023/11/13 01:46:50;;;;;;;3.45;1.95;;;180.10;2252.80;;;;;;5011894;28;20041;-78
2023/11/13 01:49:16;;;;;;;;;;;180.00;2252.80;;;;;;5013453;28;20032;-77
2023/11/13 01:51:43;;;;;;;4.35;1.83;;;180.00;2252.80;;;;;;5013135;28;19913;-77
2023/11/13 01:54:08;;;;;;;4.78;1.92;;;180.00;2252.80;;;;;;5012807;28;20095;-77
2023/11/13 01:56:34;;;;;;;;;;;179.90;2252.80;;;;;;5013783;28;20018;-78
2023/11/13 01:59:00;;;;;;;3.88;2.25;;;179.90;2252.80;;;;;;4994465;28;19912;-78
2023/11/13 02:01:28;;;;;;;4.43;1.98;;;179.90;2252.80;;;;;;5013233;28;20371;-78
2023/11/13 02:03:53;;;;;;;4.63;1.88;;;180.00;2252.80;;;;;;4995549;28;20388;-76
2023/11/13 02:06:20;;;;;;;;;;;180.00;2252.80;;;;;;5000282;28;20022;-78
2023/11/13 02:08:46;;;;;;;3.25;1.75;;;180.00;2252.80;;;;;;5012781;28;19949;-77
2023/11/13 02:11:12;;;;;;;;;;;180.10;2252.80;;;;;;4995742;28;20488;-76
2023/11/13 02:13:40;;;;;;;4.35;1.90;;;204.80;2252.80;;;;;;5006759;28;19928;-76
2023/11/13 02:16:06;;;;;;;4.75;2.35;;;204.90;2252.80;;;;;;5016595;28;20125;-76
2023/11/13 02:18:39;;;;;;;3.85;2.05;;;204.90;2252.80;;;;;;5030920;28;20124;-78
2023/11/13 02:21:05;;;;;;;4.75;2.20;;;204.90;2252.80;;;;;;5032541;28;20025;-76
2023/11/13 02:23:31;;;;;;;4.07;2.08;;;204.80;2252.80;;;;;;5031069;28;20105;-76
2023/11/13 02:25:58;;;;;;;4.85;1.95;;;204.90;2252.80;;;;;;5032420;28;20124;-75
2023/11/13 02:28:24;;;;;;;3.38;1.98;;;204.90;2252.80;;;;;;5035065;28;20025;-75
2023/11/13 02:30:50;;;;;;;3.72;1.70;;;205.00;2252.80;;;;;;5034763;28;20037;-75
2023/11/13 02:33:16;;;;;;;3.47;1.95;;;205.00;2252.80;;;;;;5036232;28;20017;-76
2023/11/13 02:35:42;;;;;;;;;;;205.00;2252.80;;;;;;5036981;28;20026;-76
2023/11/13 02:38:08;;;;;;;6.57;1.90;;;205.00;2252.80;;;;;;5035941;28;20378;-76
2023/11/13 02:40:34;;;;;;;3.63;2.03;;;204.90;2252.80;;;;;;5035025;28;20545;-76
2023/11/13 02:43:00;;;;;;;4.13;1.80;;;205.00;2252.80;;;;;;5036003;28;20022;-76
2023/11/13 02:45:26;;;;;;;;;;;205.00;2252.80;;;;;;5036378;28;20021;-77
2023/11/13 02:47:53;;;;;;;5.93;2.15;;;205.20;2252.80;;;;;;5034522;28;19913;-76
2023/11/13 02:50:19;;;;;;;2.63;1.77;;;205.10;2252.80;;;;;;5035932;28;20033;-76
2023/11/13 02:52:46;;;;;;;3.13;2.20;;;205.20;2252.80;;;;;;5035694;28;20025;-76
2023/11/13 02:55:11;;;;;;;3.50;1.85;;;205.30;2252.80;;;;;;5034837;28;20391;-76
2023/11/13 02:57:37;;;;;;;9.68;2.10;;;205.40;2252.80;;;;;;5034295;28;20017;-76
2023/11/13 03:00:09;;;;;;;2.85;1.70;;;205.40;2252.80;;;;;;5034281;28;20038;-78
2023/11/13 03:02:35;;;;;;;4.15;2.30;;;205.40;2252.80;;;;;;5034319;28;20152;-78
2023/11/13 03:05:01;;;;;;;3.83;2.20;;;205.60;2252.80;;;;;;5034440;28;20025;-78
2023/11/13 03:07:27;;;;;;;4.35;2.08;;;205.40;2252.80;;;;;;5034080;28;20026;-78
2023/11/13 03:09:54;;;;;;;;;;;205.20;2252.80;;;;;;5023731;28;20038;-78
2023/11/13 03:12:21;;;;;;;5.75;1.85;;;205.20;2252.80;;;;;;5048941;28;20012;-78
2023/11/13 03:14:48;;;;;;;3.65;2.00;;;205.20;2252.80;;;;;;5034232;28;20033;-78
2023/11/13 03:17:13;;;;;;;5.25;2.03;;;205.10;2252.80;;;;;;5034082;28;20042;-77
2023/11/13 03:19:39;;;;;;;6.25;1.73;;;205.20;2252.80;;;;;;5034507;28;20395;-77
2023/11/13 03:22:05;;;;;;;;;;;205.20;2252.80;;;;;;5034625;28;20033;-78
2023/11/13 03:24:31;;;;;;;3.38;1.55;;;205.10;2252.80;;;;;;5034411;28;19905;-78
2023/11/13 03:26:57;;;;;;;3.13;1.70;;;205.00;2252.80;;;;;;5033629;28;20026;-78
2023/11/13 03:29:25;;;;;;;4.75;2.13;;;204.90;2252.80;;;;;;5034239;28;20509;-78
2023/11/13 03:31:51;;;;;;;4.25;2.33;;;204.90;2252.80;;;;;;5033970;28;20017;-77
2023/11/13 03:34:18;;;;;;;4.82;2.08;;;204.90;2252.80;;;;;;5035453;28;20064;-78
2023/11/13 03:36:44;;;;;;;3.72;1.98;;;205.00;2252.80;;;;;;5034104;28;20018;-77
2023/11/13 03:39:10;;;;;;;4.82;2.17;;;205.00;2252.80;;;;;;5033624;28;20037;-77
2023/11/13 03:41:37;;;;;;;3.80;2.15;;;205.10;2252.80;;;;;;5033872;28;20108;-78
2023/11/13 03:44:03;;;;;;;4.25;1.70;;;205.20;2252.80;;;;;;5034267;28;20029;-78
2023/11/13 03:46:29;;;;;;;5.10;2.13;;;205.10;2252.80;;;;;;5033699;28;20476;-78
2023/11/13 03:48:55;;;;;;;3.83;1.80;;;205.10;2252.80;;;;;;5034270;28;20037;-78
2023/11/13 03:51:23;;;;;;;;;;;205.20;2252.80;;;;;;5035017;28;20029;-78
2023/11/13 03:53:50;;;;;;;3.55;2.58;;;205.20;2252.80;;;;;;5033811;28;19912;-78
2023/11/13 03:56:18;;;;;;;2.60;1.63;;;205.20;2252.80;;;;;;5033506;28;20021;-78
2023/11/13 03:58:44;;;;;;;3.08;1.75;;;205.20;2252.80;;;;;;5033857;28;20029;-78
2023/11/13 04:01:11;;;;;;;5.30;2.28;;;205.10;2252.80;;;;;;5033503;28;20108;-78
2023/11/13 04:03:38;;;;;;;3.15;1.77;;;205.00;2252.80;;;;;;5033644;28;20391;-78
2023/11/13 04:06:04;;;;;;;17.55;2.47;;;205.00;2252.80;;;;;;5033189;28;20104;-78
2023/11/13 04:08:29;;;;;;;9.18;2.30;;;205.00;2252.80;;;;;;5033515;28;20076;-78
2023/11/13 04:10:55;;;;;;;6.80;1.85;;;205.00;2252.80;;;;;;5033251;28;20479;-78
2023/11/13 04:13:22;;;;;;;;;;;205.10;2252.80;;;;;;5032720;28;20403;-79
2023/11/13 04:15:48;;;;;;;14.15;2.25;;;205.10;2252.80;;;;;;5033269;28;19962;-79
2023/11/13 04:18:14;;;;;;;;;;;205.10;2252.80;;;;;;5034100;28;20029;-78
2023/11/13 04:20:40;;;;;;;4.03;2.28;;;205.20;2252.80;;;;;;5033656;28;19909;-79
2023/11/13 04:23:05;;;;;;;;;;;205.20;2252.80;;;;;;5033604;28;20467;-79
2023/11/13 04:25:32;;;;;;;5.75;1.90;;;205.20;2252.80;;;;;;5033239;28;19905;-79
2023/11/13 04:27:58;;;;;;;10.25;2.35;;;205.20;2252.80;;;;;;5033353;28;20488;-79
2023/11/13 04:30:23;;;;;;;4.10;2.00;;;205.10;2252.80;;;;;;5033281;28;20124;-79
2023/11/13 04:32:49;;;;;;;9.07;4.75;;;205.10;2252.80;;;;;;5033290;28;20025;-79
2023/11/13 04:35:15;;;;;;;4.35;2.10;;;205.10;2252.80;;;;;;5033044;28;20375;-79
2023/11/13 04:37:41;;;;;;;3.88;2.05;;;204.90;2252.80;;;;;;5033418;28;20026;-79
2023/11/13 04:40:07;;;;;;;3.88;1.85;;;204.80;2252.80;;;;;;5032926;28;20029;-78
2023/11/13 04:42:33;;;;;;;3.90;1.95;;;180.10;2252.80;;;;;;5033099;28;20026;-79
2023/11/13 04:44:59;;;;;;;4.70;2.08;;;204.80;2252.80;;;;;;5033291;28;20029;-79
2023/11/13 04:47:24;;;;;;;;;;;204.80;2252.80;;;;;;5033106;28;20079;-79
2023/11/13 04:49:50;;;;;;;4.50;2.70;;;180.10;2252.80;;;;;;5032255;28;19921;-78
2023/11/13 04:52:15;;;;;;;;;;;204.80;2252.80;;;;;;5033639;28;20116;-79
2023/11/13 04:54:41;;;;;;;4.20;2.38;;;180.10;2252.80;;;;;;5032787;28;20417;-79
2023/11/13 04:57:07;;;;;;;;;;;180.00;2252.80;;;;;;5033399;28;20120;-79
2023/11/13 04:59:32;;;;;;;6.50;2.10;;;180.00;2252.80;;;;;;5031619;28;19912;-79
2023/11/13 05:01:59;;;;;;;;;;;180.00;2252.80;;;;;;5033535;28;20425;-79
2023/11/13 05:04:26;;;;;;;9.07;2.15;;;180.00;2252.80;;;;;;5032600;28;19999;-79
2023/11/13 05:06:52;;;;;;;6.55;2.00;;;180.00;2252.80;;;;;;5032807;28;20503;-79
2023/11/13 05:09:18;;;;;;;;;;;180.00;2252.80;;;;;;5032750;28;20124;-77
2023/11/13 05:11:44;;;;;;;5.13;2.08;;;180.00;2252.80;;;;;;5031976;28;19909;-80
2023/11/13 05:14:10;;;;;;;;;;;180.10;2252.80;;;;;;5034540;28;20471;-80
2023/11/13 05:16:37;;;;;;;4.78;2.60;;;180.10;2252.80;;;;;;5032097;28;20290;-80
2023/11/13 05:19:03;;;;;;;5.85;2.88;;;180.10;2252.80;;;;;;5032327;28;20036;-80
2023/11/13 05:21:29;;;;;;;7.97;3.88;;;180.00;2252.80;;;;;;5031984;28;20037;-80
2023/11/13 05:23:55;;;;;;;4.90;2.58;;;180.00;2252.80;;;;;;5027286;28;20024;-80
2023/11/13 05:26:21;;;;;;;;;;;180.10;2252.80;;;;;;5025315;28;20021;-81
2023/11/13 05:28:47;;;;;;;8.00;3.70;;;180.00;2252.80;;;;;;5032223;28;19905;-80
2023/11/13 05:31:14;;;;;;;10.48;4.78;;;180.00;2252.80;;;;;;5032736;28;20034;-80
2023/11/13 05:33:40;;;;;;;8.02;3.97;;;180.00;2252.80;;;;;;5032389;28;20057;-80
2023/11/13 05:36:06;;;;;;;11.00;4.07;;;180.00;2252.80;;;;;;5032503;28;20057;-80
2023/11/13 05:38:31;;;;;;;10.02;4.97;;;180.00;2252.80;;;;;;5032050;28;20087;-80
2023/11/13 05:40:57;;;;;;;;;;;180.00;2252.80;;;;;;5032953;28;20025;-80
2023/11/13 05:43:23;;;;;;;10.35;5.70;;;179.90;2252.80;;;;;;5032417;28;20371;-79
2023/11/13 05:45:49;;;;;;;11.60;5.70;;;179.90;2252.80;;;;;;5032270;28;20064;-80
2023/11/13 05:48:16;;;;;;;;;;;179.90;2252.80;;;;;;5032626;28;20022;-79
2023/11/13 05:50:42;;;;;;;10.10;4.70;;;179.80;2252.80;;;;;;5032221;28;19913;-80
2023/11/13 05:53:07;;;;;;;13.10;6.10;;;179.90;2252.80;;;;;;5032059;28;20151;-79
2023/11/13 05:55:36;;;;;;;12.15;6.00;;;179.90;2252.80;;;;;;5033244;28;20426;-80
2023/11/13 05:58:04;;;;;;;13.48;6.65;;;180.00;2252.80;;;;;;5032259;28;20362;-80
2023/11/13 06:00:31;;;;;;;13.52;6.80;;;180.10;2252.80;;;;;;5032666;28;20406;-79
2023/11/13 06:02:56;;;;;;;14.75;7.40;;;204.80;2252.80;;;;;;5033853;28;20017;-80
2023/11/13 06:05:22;;;;;;;;;;;204.80;2252.80;;;;;;5036612;28;20022;-79
2023/11/13 06:07:48;;;;;;;13.77;7.22;;;204.80;2252.80;;;;;;5032974;28;20307;-79
2023/11/13 06:10:14;;;;;;;;;;;204.80;2252.80;;;;;;5043208;28;20041;-78
2023/11/13 06:12:40;;;;;;;16.98;7.10;;;180.10;2252.80;;;;;;5030514;28;19909;-78
2023/11/13 06:15:13;;;;;;;17.65;9.48;;;180.10;2252.80;;;;;;5034129;28;20022;-78
2023/11/13 06:17:40;;;;;;;14.95;8.38;;;180.10;2252.80;;;;;;5032878;28;20104;-77
2023/11/13 06:20:06;;;;;;;19.58;10.55;;;180.10;2252.80;;;;;;5026456;28;20037;-78
2023/11/13 06:22:32;;;;;;;14.52;7.78;;;180.10;2252.80;;;;;;5029767;28;20026;-77
2023/11/13 06:24:59;;;;;;;13.80;8.32;;;180.10;2252.80;;;;;;5035022;28;20072;-78
2023/11/13 06:27:25;;;;;;;12.93;7.50;;;180.10;2252.80;;;;;;5032155;28;20067;-81
2023/11/13 06:29:50;;;;;;;;;;;180.10;2252.80;;;;;;5035776;28;20136;-80
2023/11/13 06:32:17;;;;;;;20.02;9.40;;;204.80;2252.80;;;;;;5032038;28;19905;-80
2023/11/13 06:34:43;;;;;;;14.88;7.70;;;204.90;2252.80;;;;;;5025591;28;20079;-79
2023/11/13 06:37:09;;;;;;;;;;;204.90;2252.80;;;;;;5030086;28;20033;-79
2023/11/13 06:39:34;;;;;;;13.20;7.97;;;205.00;2252.80;;;;;;5029964;28;20008;-78
2023/11/13 06:42:00;;;;;;;;;;;205.00;2252.80;;;;;;5026783;28;20032;-77
2023/11/13 06:44:25;;;;;;;15.40;8.20;;;204.90;2252.80;;;;;;5024216;28;20271;-79
2023/11/13 06:46:51;;;;;;;;;;;205.00;2252.80;;;;;;5024296;28;20026;-78
2023/11/13 06:49:19;;;;;;;22.02;10.70;;;205.00;2252.80;;;;;;5029445;28;19960;-79
2023/11/13 06:51:45;;;;;;;27.15;12.25;;;205.20;2252.80;;;;;;5044648;28;20048;-82
2023/11/13 06:54:11;;;;;;;25.27;11.18;;;205.20;2252.80;;;;;;5029443;28;20018;-84
2023/11/13 06:56:37;;;;;;;;;;;205.40;2252.80;;;;;;5043217;28;20033;-82
2023/11/13 06:59:03;;;;;;;29.65;13.32;;;205.40;2252.80;;;;;;5048202;28;19905;-80
2023/11/13 07:01:28;;;;;;;26.92;12.82;;;205.40;2252.80;;;;;;5034843;28;20036;-84
2023/11/13 07:03:54;;;;;;;;;;;205.40;2252.80;;;;;;5026017;28;20030;-84
2023/11/13 07:06:19;;;;;;;26.90;13.77;;;205.50;2252.80;;;;;;5034496;28;20370;-84
2023/11/13 07:08:45;;;;;;;;;;;205.60;2252.80;;;;;;5036130;28;20104;-83
2023/11/13 07:11:14;;;;;;;21.00;10.20;;;205.50;2252.80;;;;;;5030635;28;19959;-81
2023/11/13 07:13:40;;;;;;;20.35;11.73;;;205.50;2252.80;;;;;;5041069;28;20092;-79
2023/11/13 07:16:10;;;;;;;21.90;11.65;;;205.50;2252.80;;;;;;5026985;28;20570;-80
2023/11/13 07:18:36;;;;;;;23.05;12.57;;;205.60;2252.80;;;;;;5027349;28;20044;-79
2023/11/13 07:21:02;;;;;;;29.40;11.90;;;205.60;2252.80;;;;;;5032319;28;20036;-81
2023/11/13 07:23:29;;;;;;;25.90;11.68;;;205.60;2252.80;;;;;;5031737;28;20021;-83
2023/11/13 07:25:55;;;;;;;21.50;11.25;;;205.60;2252.80;;;;;;5054585;28;20029;-78
2023/11/13 07:28:22;;;;;;;22.15;10.88;;;205.60;2252.80;;;;;;5052218;28;20090;-77
2023/11/13 07:30:48;;;;;;;22.42;12.23;;;205.60;2252.80;;;;;;5036406;28;20041;-79
2023/11/13 07:33:14;;;;;;;22.77;13.20;;;205.60;2252.80;;;;;;5032927;28;20095;-80
2023/11/13 07:35:40;;;;;;;21.30;12.15;;;205.60;2252.80;;;;;;5034256;28;20061;-79
2023/11/13 07:38:09;;;;;;;22.85;13.00;;;205.60;2252.80;;;;;;5022803;28;20024;-79
2023/11/13 07:40:36;;;;;;;24.60;13.25;;;205.70;2252.80;;;;;;5028686;28;20475;-79
2023/11/13 07:43:02;;;;;;;23.70;13.23;;;230.40;2252.80;;;;;;5037306;28;20048;-79
2023/11/13 07:45:28;;;;;;;32.83;15.50;;;230.50;2252.80;;;;;;5033447;28;20111;-78
2023/11/13 07:47:56;;;;;;;27.63;14.77;;;230.40;2252.80;;;;;;5034430;28;20083;-79
2023/11/13 07:50:23;;;;;;;24.65;14.50;;;230.50;2252.80;;;;;;5031550;28;20043;-79
2023/11/13 07:52:50;;;;;;;25.42;14.73;;;230.60;2252.80;;;;;;5032001;28;20043;-80
2023/11/13 07:55:18;;;;;;;22.25;13.38;;;230.50;2252.80;;;;;;5030819;28;20029;-79
2023/11/13 07:57:44;;;;;;;28.92;16.15;;;230.60;2252.80;;;;;;5031763;28;20072;-79
2023/11/13 08:00:11;;;;;;;24.58;14.57;;;230.70;2252.80;;;;;;5036771;28;20120;-83
2023/11/13 08:02:42;;;;;;;24.98;13.95;;;230.60;2252.80;;;;;;5033993;28;20018;-80
2023/11/13 08:05:11;;;;;;;28.17;15.82;;;230.60;2252.80;;;;;;5027718;28;20044;-82
2023/11/13 08:07:42;;;;;;;28.23;15.65;;;230.70;2252.80;;;;;;5032540;28;20108;-77
2023/11/13 08:10:12;;;;;;;25.40;14.65;;;230.70;2252.80;;;;;;5032111;28;20033;-79
2023/11/13 08:12:49;;;;;;;25.88;16.00;;;230.80;2252.80;;;;;;5045401;28;20021;-76
2023/11/13 08:15:16;;;;;;;26.50;16.45;;;230.90;2252.80;;;;;;5029107;28;20475;-79
2023/11/13 08:17:43;;;;;;;27.17;16.20;;;231.10;2252.80;;;;;;5051664;28;20056;-79
2023/11/13 08:20:10;;;;;;;30.40;19.40;;;231.10;2252.80;;;;;;5027551;28;20026;-76
2023/11/13 08:22:38;;;;;;;30.67;18.23;;;231.20;2252.80;;;;;;5033810;28;20048;-79
2023/11/13 08:25:11;;;;;;;28.15;16.48;;;231.30;2252.80;;;;;;5023863;28;20025;-79
2023/11/13 08:27:40;;;;;;;29.08;16.77;;;256.10;2252.80;;;;;;5020951;28;20417;-80
2023/11/13 08:30:07;;;;;;;29.38;16.98;;;256.20;2252.80;;;;;;5025783;28;20073;-80
2023/11/13 08:32:34;;;;;;;29.80;17.60;;;256.20;2252.80;;;;;;5030520;28;20025;-81
2023/11/13 08:35:11;;;;;;;31.38;16.80;;;256.20;2252.80;;;;;;5029044;28;20072;-81
2023/11/13 08:37:37;;;;;;;32.50;18.42;;;256.10;2252.80;;;;;;5030879;28;20025;-81
2023/11/13 08:40:04;;;;;;;30.17;18.88;;;256.40;2252.80;;;;;;5035150;28;20486;-80
2023/11/13 08:42:30;;;;;;;28.92;18.58;;;256.40;2252.80;;;;;;5029538;28;20033;-81
2023/11/13 08:44:56;;;;;;;39.78;19.20;;;256.50;2252.80;;;;;;5028944;28;20498;-82
2023/11/13 08:47:22;;;;;;;;;;;256.50;2252.80;;;;;;5036299;28;20048;-80
2023/11/13 08:49:48;;;;;;;34.08;18.85;;;256.70;2252.80;;;;;;5031125;28;20077;-78
2023/11/13 08:52:14;;;;;;;30.65;17.85;;;256.70;2252.80;;;;;;5026479;28;20131;-83
2023/11/13 08:54:39;;;;;;;;;;;256.80;2252.80;;;;;;5030334;28;20032;-81
2023/11/13 08:57:10;;;;;;;37.47;19.48;;;281.60;2278.40;;;;;;5048851;28;19905;-78
2023/11/13 08:59:38;;;;;;;32.92;19.52;;;281.90;2278.40;;;;;;5023363;28;20037;-82
2023/11/13 09:02:07;;;;;;;29.63;17.15;;;282.10;2278.40;;;;;;5019322;28;20026;-83
2023/11/13 09:04:36;;;;;;;39.47;18.73;;;282.00;2278.40;;;;;;5032015;28;20471;-81
2023/11/13 09:07:07;;;;;;;29.95;17.73;;;282.20;2278.40;;;;;;5035613;28;20040;-80
2023/11/13 09:09:37;;;;;;;36.72;19.92;;;282.30;2278.40;;;;;;5050382;28;20037;-80
2023/11/13 09:12:04;;;;;;;28.67;17.08;;;282.50;2278.40;;;;;;5033617;28;20479;-80
2023/11/13 09:14:35;;;;;;;33.60;18.67;;;282.50;2278.40;;;;;;5034646;28;20541;-80
2023/11/13 09:17:12;;;;;;;27.38;17.17;;;307.40;2304.00;;;;;;5028770;28;20102;-80
2023/11/13 09:19:41;;;;;;;27.05;16.73;;;307.70;2304.00;;;;;;5046386;28;20075;-78
2023/11/13 09:22:09;;;;;;;35.33;17.67;;;307.70;2304.00;;;;;;5028953;28;20045;-80
2023/11/13 09:24:41;;;;;;;32.88;16.23;;;332.90;2329.60;;;;;;5025760;28;20029;-80
2023/11/13 09:27:11;;;;;;;31.20;17.50;;;332.90;2329.60;;;;;;5045462;28;20025;-79
2023/11/13 09:29:43;;;;;;;30.55;16.45;;;333.20;2329.60;;;;;;5030220;28;20029;-79
2023/11/13 09:32:11;;;;;;;32.00;17.60;;;333.00;2329.60;;;;;;5036022;28;20017;-82
2023/11/13 09:34:37;;;;;;;32.30;16.25;;;332.90;2329.60;;;;;;5034316;28;20032;-79
2023/11/13 09:37:08;;;;;;;46.28;18.17;;;332.80;2329.60;;;;;;5028397;28;20035;-81
2023/11/13 09:39:42;;;;;;;31.60;17.15;;;308.10;2304.00;;;;;;5028105;28;20514;-80
2023/11/13 09:42:18;;;;;;;25.58;16.65;;;308.10;2304.00;;;;;;5034988;28;20499;-77
2023/11/13 09:44:47;;;;;;;30.48;16.55;;;332.80;2329.60;;;;;;5025056;28;20025;-78
2023/11/13 09:47:16;;;;;;;26.02;16.38;;;333.30;2329.60;;;;;;5044785;28;20033;-80
2023/11/13 09:49:59;;;;;;;29.40;15.45;;;333.40;2329.60;;;;;;5029178;28;20033;-87
2023/11/13 09:52:27;;;;;;;25.30;15.73;;;333.40;2329.60;;;;;;5016952;28;20029;-78
2023/11/13 09:54:55;;;;;;;25.42;16.38;;;333.40;2329.60;;;;;;5029524;28;20024;-82
2023/11/13 09:57:22;;;;;;;28.80;15.70;;;333.40;2329.60;;;;;;5039840;28;20053;-81
2023/11/13 09:59:51;;;;;;;30.50;16.50;;;333.30;2329.60;;;;;;5034237;28;20037;-81
2023/11/13 10:02:20;;;;;;;29.65;15.82;;;333.30;2329.60;;;;;;5026225;28;20433;-81
2023/11/13 10:04:46;;;;;;;29.98;16.17;;;333.40;2329.60;;;;;;5026477;28;20029;-81
2023/11/13 10:07:15;;;;;;;33.20;15.27;;;333.60;2329.60;;;;;;5044100;28;20029;-80
2023/11/13 10:09:41;;;;;;;31.98;17.30;;;333.70;2329.60;;;;;;5050591;28;20395;-81
2023/11/13 10:12:09;;;;;;;30.30;17.95;;;359.00;2329.60;;;;;;5042684;28;20056;-82
2023/11/13 10:14:35;;;;;;;42.15;22.60;;;384.00;2329.60;;;;;;5022368;28;20038;-78
2023/11/13 10:17:01;;;;;;;29.40;16.02;;;384.40;2329.60;;;;;;5029028;28;20037;-81
2023/11/13 10:19:28;;;;;;;17.92;12.25;;;384.70;2329.60;;;;;;5021150;28;20083;-73
2023/11/13 10:21:56;;;;;;;25.83;13.60;;;409.60;2355.20;;;;;;5044914;28;20501;-83
2023/11/13 10:24:24;;;;;;;26.02;14.50;;;384.50;2329.60;;;;;;5046424;28;20022;-83
2023/11/13 10:26:55;;;;;;;23.58;12.60;;;384.60;2329.60;;;;;;5024565;28;20033;-82
2023/11/13 10:29:30;;;;;;;27.42;13.57;;;384.60;2329.60;;;;;;5039036;28;20034;-83
2023/11/13 10:32:06;;;;;;;21.73;13.18;;;384.40;2329.60;;;;;;5024695;28;20121;-79
2023/11/13 10:34:43;;;;;;;21.42;12.88;;;384.40;2329.60;;;;;;5034764;28;20071;-84
2023/11/13 10:37:10;;;;;;;24.35;12.57;;;384.70;2329.60;;;;;;5030555;28;20027;-80
2023/11/13 10:39:37;;;;;;;20.48;13.27;;;384.60;2329.60;;;;;;5042541;28;20025;-81
2023/11/13 10:42:16;;;;;;;21.15;12.55;;;384.70;2329.60;;;;;;5048722;28;20028;-81
2023/11/13 10:44:42;;;;;;;20.45;12.88;;;384.90;2329.60;;;;;;5028495;28;20490;-81
2023/11/13 10:47:25;;;;;;;18.58;12.30;;;384.50;2329.60;;;;;;5034872;28;20021;-80
2023/11/13 10:49:53;;;;;;;20.38;11.63;;;384.60;2329.60;;;;;;5026898;28;20040;-79
2023/11/13 10:52:29;;;;;;;21.88;11.07;;;384.40;2329.60;;;;;;5037011;28;20542;-79
2023/11/13 10:54:56;;;;;;;23.17;11.45;;;384.50;2329.60;;;;;;5032350;28;20049;-84
2023/11/13 10:57:26;;;;;;;23.08;11.57;;;384.50;2329.60;;;;;;5047538;28;20029;-81
2023/11/13 10:59:53;;;;;;;22.60;12.15;;;384.40;2329.60;;;;;;5030265;28;20172;-80
2023/11/13 11:02:27;;;;;;;18.52;10.50;;;384.50;2329.60;;;;;;5032574;28;20479;-80
2023/11/13 11:04:56;;;;;;;22.95;13.30;;;384.40;2329.60;;;;;;5047252;28;20029;-80
2023/11/13 11:07:26;;;;;;;20.20;12.35;;;384.40;2329.60;;;;;;5035483;28;20482;-81
2023/11/13 11:09:56;;;;;;;24.15;12.07;;;384.40;2329.60;;;;;;5032116;28;20029;-80
2023/11/13 11:12:25;;;;;;;19.10;10.82;;;384.60;2329.60;;;;;;5054308;28;20147;-80
2023/11/13 11:15:16;;;;;;;20.70;10.70;;;409.70;2355.20;;;;;;5029814;28;20116;-80
2023/11/13 11:17:51;;;;;;;14.70;8.95;;;409.90;2355.20;;;;;;5024551;28;20057;-80
2023/11/13 11:20:26;;;;;;;14.45;8.93;;;409.80;2355.20;;;;;;5024670;28;20368;-80
2023/11/13 11:22:54;;;;;;;16.13;8.80;;;;;;;;;;5033867;28;20025;-81
2023/11/13 11:25:46;;;;;;;14.27;8.93;;;410.00;2355.20;;;;;;5041755;28;20052;-80
2023/11/13 11:28:43;;;;;;;11.88;7.43;;;410.30;2355.20;;;;;;5038328;28;20030;-80
2023/11/13 11:31:31;;;;;;;12.65;7.55;;;410.00;2355.20;;;;;;5037348;28;20033;-80
2023/11/13 11:33:57;;;;;;;13.32;7.60;;;409.70;2355.20;;;;;;5036732;28;20029;-80
2023/11/13 11:36:26;;;;;;;16.83;7.18;;;409.60;2355.20;;;;;;5022085;28;20025;-80
2023/11/13 11:39:23;;;;;;;14.85;7.63;;;409.60;2355.20;;;;;;5039903;28;20059;-80
2023/11/13 11:41:54;;;;;;;12.68;7.85;;;409.70;2355.20;;;;;;5036822;28;20036;-81
2023/11/13 11:44:28;;;;;;;16.23;7.55;;;409.70;2355.20;;;;;;5052377;28;20020;-79
2023/11/13 11:46:55;;;;;;;13.43;7.43;;;409.70;2355.20;;;;;;5032236;28;20025;-79
2023/11/13 11:49:25;;;;;;;15.10;6.70;;;409.70;2355.20;;;;;;5033595;28;20079;-82
2023/11/13 11:52:08;;;;;;;14.48;7.15;;;409.60;2355.20;;;;;;5054182;28;20479;-81
2023/11/13 11:54:35;;;;;;;11.57;6.85;;;409.60;2355.20;;;;;;5042988;28;20021;-82
2023/11/13 11:57:03;;;;;;;21.00;8.00;;;384.80;2329.60;;;;;;5028713;28;20029;-81
2023/11/13 11:59:30;;;;;;;16.35;6.35;;;384.80;2329.60;;;;;;5050347;28;20032;-83
2023/11/13 12:02:02;;;;;;;12.05;6.93;;;384.70;2329.60;;;;;;5037158;28;20021;-79
2023/11/13 12:04:30;;;;;;;19.90;7.07;;;384.80;2329.60;;;;;;5042323;28;20108;-82
2023/11/13 12:06:56;;;;;;;12.70;6.60;;;384.80;2329.60;;;;;;5046851;28;20021;-82
2023/11/13 12:09:22;;;;;;;12.02;6.28;;;384.70;2329.60;;;;;;5043301;28;20039;-80
2023/11/13 12:11:52;;;;;;;14.98;7.43;;;384.70;2329.60;;;;;;5042741;28;20021;-82
2023/11/13 12:14:19;;;;;;;14.38;7.00;;;384.80;2329.60;;;;;;5044405;28;20498;-81
2023/11/13 12:16:46;;;;;;;17.40;7.75;;;384.90;2329.60;;;;;;5035213;28;20033;-84
2023/11/13 12:19:12;;;;;;;18.08;8.18;;;384.90;2329.60;;;;;;5023682;28;20029;-82
2023/11/13 12:21:43;;;;;;;22.90;9.05;;;384.80;2329.60;;;;;;5051784;28;20029;-80
2023/11/13 12:24:11;;;;;;;15.27;7.60;;;384.80;2329.60;;;;;;5037587;28;20095;-85